sensor_id;sensor_type;location;lat;lon;timestamp;temperature;humidity
48535;DHT22;34323;52.022;5.686;2022-07-06T00:01:32;19.30;97.60
48535;DHT22;34323;52.022;5.686;2022-07-06T00:03:58;19.20;98.00
48535;DHT22;34323;52.022;5.686;2022-07-06T00:06:24;18.90;98.50
48535;DHT22;34323;52.022;5.686;2022-07-06T00:08:50;18.90;98.40
48535;DHT22;34323;52.022;5.686;2022-07-06T00:11:16;18.80;98.20
48535;DHT22;34323;52.022;5.686;2022-07-06T00:13:42;19.00;97.80
48535;DHT22;34323;52.022;5.686;2022-07-06T00:16:08;19.10;98.00
48535;DHT22;34323;52.022;5.686;2022-07-06T00:18:34;19.10;97.80
48535;DHT22;34323;52.022;5.686;2022-07-06T00:21:00;19.20;97.60
48535;DHT22;34323;52.022;5.686;2022-07-06T00:23:25;19.20;97.60
48535;DHT22;34323;52.022;5.686;2022-07-06T00:25:51;19.20;97.80
48535;DHT22;34323;52.022;5.686;2022-07-06T00:28:17;19.00;97.90
48535;DHT22;34323;52.022;5.686;2022-07-06T00:30:43;19.10;97.80
48535;DHT22;34323;52.022;5.686;2022-07-06T00:33:09;18.80;97.70
48535;DHT22;34323;52.022;5.686;2022-07-06T00:35:35;19.00;97.60
48535;DHT22;34323;52.022;5.686;2022-07-06T00:38:00;19.20;97.60
48535;DHT22;34323;52.022;5.686;2022-07-06T00:40:26;19.20;97.60
48535;DHT22;34323;52.022;5.686;2022-07-06T00:42:52;19.00;97.90
48535;DHT22;34323;52.022;5.686;2022-07-06T00:45:18;18.80;98.00
48535;DHT22;34323;52.022;5.686;2022-07-06T00:47:45;18.80;98.00
48535;DHT22;34323;52.022;5.686;2022-07-06T00:50:14;18.70;97.80
48535;DHT22;34323;52.022;5.686;2022-07-06T00:52:42;18.70;97.80
48535;DHT22;34323;52.022;5.686;2022-07-06T00:55:09;18.80;97.70
48535;DHT22;34323;52.022;5.686;2022-07-06T00:57:36;18.80;97.90
48535;DHT22;34323;52.022;5.686;2022-07-06T01:00:07;18.70;97.80
48535;DHT22;34323;52.022;5.686;2022-07-06T01:02:33;18.70;97.80
48535;DHT22;34323;52.022;5.686;2022-07-06T01:05:00;18.70;97.70
48535;DHT22;34323;52.022;5.686;2022-07-06T01:07:26;18.80;97.70
48535;DHT22;34323;52.022;5.686;2022-07-06T01:09:53;18.70;97.30
48535;DHT22;34323;52.022;5.686;2022-07-06T01:12:19;18.80;97.10
48535;DHT22;34323;52.022;5.686;2022-07-06T01:14:45;19.00;97.10
48535;DHT22;34323;52.022;5.686;2022-07-06T01:17:12;19.00;97.60
48535;DHT22;34323;52.022;5.686;2022-07-06T01:19:39;18.80;97.90
48535;DHT22;34323;52.022;5.686;2022-07-06T01:22:04;18.60;98.00
48535;DHT22;34323;52.022;5.686;2022-07-06T01:24:30;18.50;98.10
48535;DHT22;34323;52.022;5.686;2022-07-06T01:26:56;18.40;98.00
48535;DHT22;34323;52.022;5.686;2022-07-06T01:29:23;18.30;97.90
48535;DHT22;34323;52.022;5.686;2022-07-06T01:31:50;18.30;97.90
48535;DHT22;34323;52.022;5.686;2022-07-06T01:34:19;18.40;97.90
48535;DHT22;34323;52.022;5.686;2022-07-06T01:36:45;18.30;97.70
48535;DHT22;34323;52.022;5.686;2022-07-06T01:39:11;18.40;97.60
48535;DHT22;34323;52.022;5.686;2022-07-06T01:41:37;18.50;97.60
48535;DHT22;34323;52.022;5.686;2022-07-06T01:44:04;18.50;97.30
48535;DHT22;34323;52.022;5.686;2022-07-06T01:46:30;18.40;97.60
48535;DHT22;34323;52.022;5.686;2022-07-06T01:48:56;18.30;97.70
48535;DHT22;34323;52.022;5.686;2022-07-06T01:51:22;18.20;97.80
48535;DHT22;34323;52.022;5.686;2022-07-06T01:53:48;17.90;97.70
48535;DHT22;34323;52.022;5.686;2022-07-06T01:56:14;17.80;97.90
48535;DHT22;34323;52.022;5.686;2022-07-06T01:58:40;18.00;97.80
48535;DHT22;34323;52.022;5.686;2022-07-06T02:01:11;17.90;97.70
48535;DHT22;34323;52.022;5.686;2022-07-06T02:03:37;18.10;98.00
48535;DHT22;34323;52.022;5.686;2022-07-06T02:06:04;17.90;98.00
48535;DHT22;34323;52.022;5.686;2022-07-06T02:08:31;17.90;97.90
48535;DHT22;34323;52.022;5.686;2022-07-06T02:10:58;18.10;98.10
48535;DHT22;34323;52.022;5.686;2022-07-06T02:13:24;17.90;97.80
48535;DHT22;34323;52.022;5.686;2022-07-06T02:15:50;18.00;98.00
48535;DHT22;34323;52.022;5.686;2022-07-06T02:18:16;18.10;97.90
48535;DHT22;34323;52.022;5.686;2022-07-06T02:20:42;18.00;98.00
48535;DHT22;34323;52.022;5.686;2022-07-06T02:23:08;17.70;98.10
48535;DHT22;34323;52.022;5.686;2022-07-06T02:25:34;17.80;98.00
48535;DHT22;34323;52.022;5.686;2022-07-06T02:27:59;17.80;98.20
48535;DHT22;34323;52.022;5.686;2022-07-06T02:30:25;17.90;98.20
48535;DHT22;34323;52.022;5.686;2022-07-06T02:32:51;18.00;98.40
48535;DHT22;34323;52.022;5.686;2022-07-06T02:35:17;17.90;98.40
48535;DHT22;34323;52.022;5.686;2022-07-06T02:37:43;17.90;98.40
48535;DHT22;34323;52.022;5.686;2022-07-06T02:40:09;17.90;98.60
48535;DHT22;34323;52.022;5.686;2022-07-06T02:42:35;17.70;98.60
48535;DHT22;34323;52.022;5.686;2022-07-06T02:45:01;17.80;98.50
48535;DHT22;34323;52.022;5.686;2022-07-06T02:47:26;17.80;98.80
48535;DHT22;34323;52.022;5.686;2022-07-06T02:49:53;17.80;98.80
48535;DHT22;34323;52.022;5.686;2022-07-06T02:52:19;17.70;98.70
48535;DHT22;34323;52.022;5.686;2022-07-06T02:54:45;17.90;99.00
48535;DHT22;34323;52.022;5.686;2022-07-06T02:57:10;17.80;98.80
48535;DHT22;34323;52.022;5.686;2022-07-06T02:59:36;17.80;98.40
48535;DHT22;34323;52.022;5.686;2022-07-06T03:02:05;18.00;98.50
48535;DHT22;34323;52.022;5.686;2022-07-06T03:04:32;18.00;98.20
48535;DHT22;34323;52.022;5.686;2022-07-06T03:06:57;18.20;98.60
48535;DHT22;34323;52.022;5.686;2022-07-06T03:09:23;18.20;98.70
48535;DHT22;34323;52.022;5.686;2022-07-06T03:11:49;18.10;98.80
48535;DHT22;34323;52.022;5.686;2022-07-06T03:14:14;18.00;99.00
48535;DHT22;34323;52.022;5.686;2022-07-06T03:16:40;17.80;98.80
48535;DHT22;34323;52.022;5.686;2022-07-06T03:19:06;17.90;98.70
48535;DHT22;34323;52.022;5.686;2022-07-06T03:21:32;18.00;98.30
48535;DHT22;34323;52.022;5.686;2022-07-06T03:23:58;18.30;98.50
48535;DHT22;34323;52.022;5.686;2022-07-06T03:26:23;18.10;98.30
48535;DHT22;34323;52.022;5.686;2022-07-06T03:28:49;18.40;98.60
48535;DHT22;34323;52.022;5.686;2022-07-06T03:31:15;18.40;98.70
48535;DHT22;34323;52.022;5.686;2022-07-06T03:33:41;18.20;98.70
48535;DHT22;34323;52.022;5.686;2022-07-06T03:36:07;18.10;99.00
48535;DHT22;34323;52.022;5.686;2022-07-06T03:38:33;18.10;99.20
48535;DHT22;34323;52.022;5.686;2022-07-06T03:40:59;18.10;99.30
48535;DHT22;34323;52.022;5.686;2022-07-06T03:43:25;18.10;99.50
48535;DHT22;34323;52.022;5.686;2022-07-06T03:45:51;17.90;99.20
48535;DHT22;34323;52.022;5.686;2022-07-06T03:48:16;18.20;99.20
48535;DHT22;34323;52.022;5.686;2022-07-06T03:50:42;18.40;99.30
48535;DHT22;34323;52.022;5.686;2022-07-06T03:53:08;18.40;99.10
48535;DHT22;34323;52.022;5.686;2022-07-06T03:55:34;18.40;99.00
48535;DHT22;34323;52.022;5.686;2022-07-06T03:58:00;18.40;99.20
48535;DHT22;34323;52.022;5.686;2022-07-06T04:00:25;18.50;98.70
48535;DHT22;34323;52.022;5.686;2022-07-06T04:02:51;18.30;98.40
48535;DHT22;34323;52.022;5.686;2022-07-06T04:05:17;18.60;98.70
48535;DHT22;34323;52.022;5.686;2022-07-06T04:07:47;18.60;98.50
48535;DHT22;34323;52.022;5.686;2022-07-06T04:10:13;18.40;98.10
48535;DHT22;34323;52.022;5.686;2022-07-06T04:12:43;18.70;98.60
48535;DHT22;34323;52.022;5.686;2022-07-06T04:15:10;18.50;98.20
48535;DHT22;34323;52.022;5.686;2022-07-06T04:17:37;18.50;98.40
48535;DHT22;34323;52.022;5.686;2022-07-06T04:20:18;18.40;98.30
48535;DHT22;34323;52.022;5.686;2022-07-06T04:22:44;18.30;98.10
48535;DHT22;34323;52.022;5.686;2022-07-06T04:25:09;18.40;98.20
48535;DHT22;34323;52.022;5.686;2022-07-06T04:27:35;18.40;98.50
48535;DHT22;34323;52.022;5.686;2022-07-06T04:30:05;18.30;98.90
48535;DHT22;34323;52.022;5.686;2022-07-06T04:32:31;18.10;99.20
48535;DHT22;34323;52.022;5.686;2022-07-06T04:34:57;17.90;99.00
48535;DHT22;34323;52.022;5.686;2022-07-06T04:37:23;18.20;99.10
48535;DHT22;34323;52.022;5.686;2022-07-06T04:39:48;18.10;98.80
48535;DHT22;34323;52.022;5.686;2022-07-06T04:42:14;18.10;98.90
48535;DHT22;34323;52.022;5.686;2022-07-06T04:44:40;18.30;98.80
48535;DHT22;34323;52.022;5.686;2022-07-06T04:47:06;18.30;99.10
48535;DHT22;34323;52.022;5.686;2022-07-06T04:49:32;18.20;99.30
48535;DHT22;34323;52.022;5.686;2022-07-06T04:51:57;17.90;99.30
48535;DHT22;34323;52.022;5.686;2022-07-06T04:54:23;18.00;99.20
48535;DHT22;34323;52.022;5.686;2022-07-06T04:56:49;17.90;99.00
48535;DHT22;34323;52.022;5.686;2022-07-06T04:59:15;18.30;99.20
48535;DHT22;34323;52.022;5.686;2022-07-06T05:01:41;18.30;99.00
48535;DHT22;34323;52.022;5.686;2022-07-06T05:04:08;18.50;99.40
48535;DHT22;34323;52.022;5.686;2022-07-06T05:06:34;18.50;99.80
48535;DHT22;34323;52.022;5.686;2022-07-06T05:08:59;18.20;99.90
48535;DHT22;34323;52.022;5.686;2022-07-06T05:11:26;18.30;99.90
48535;DHT22;34323;52.022;5.686;2022-07-06T05:13:52;18.30;99.90
48535;DHT22;34323;52.022;5.686;2022-07-06T05:16:18;18.30;99.90
48535;DHT22;34323;52.022;5.686;2022-07-06T05:18:44;18.20;99.90
48535;DHT22;34323;52.022;5.686;2022-07-06T05:21:09;18.30;99.90
48535;DHT22;34323;52.022;5.686;2022-07-06T05:23:35;18.50;99.90
48535;DHT22;34323;52.022;5.686;2022-07-06T05:26:01;18.50;99.90
48535;DHT22;34323;52.022;5.686;2022-07-06T05:28:27;18.70;99.90
48535;DHT22;34323;52.022;5.686;2022-07-06T05:30:53;18.70;99.90
48535;DHT22;34323;52.022;5.686;2022-07-06T05:33:19;18.80;99.90
48535;DHT22;34323;52.022;5.686;2022-07-06T05:35:44;18.70;99.90
48535;DHT22;34323;52.022;5.686;2022-07-06T05:38:10;19.10;99.90
48535;DHT22;34323;52.022;5.686;2022-07-06T05:40:36;19.20;99.90
48535;DHT22;34323;52.022;5.686;2022-07-06T05:43:04;19.20;99.90
48535;DHT22;34323;52.022;5.686;2022-07-06T05:45:30;19.20;99.90
48535;DHT22;34323;52.022;5.686;2022-07-06T05:47:56;19.20;99.90
48535;DHT22;34323;52.022;5.686;2022-07-06T05:50:40;19.20;99.90
48535;DHT22;34323;52.022;5.686;2022-07-06T05:53:06;19.10;99.90
48535;DHT22;34323;52.022;5.686;2022-07-06T05:55:33;19.00;99.90
48535;DHT22;34323;52.022;5.686;2022-07-06T05:57:58;18.80;99.90
48535;DHT22;34323;52.022;5.686;2022-07-06T06:00:25;18.90;99.90
48535;DHT22;34323;52.022;5.686;2022-07-06T06:02:52;18.90;99.90
48535;DHT22;34323;52.022;5.686;2022-07-06T06:05:19;18.70;99.90
48535;DHT22;34323;52.022;5.686;2022-07-06T06:07:45;18.70;99.90
48535;DHT22;34323;52.022;5.686;2022-07-06T06:10:17;18.80;99.90
48535;DHT22;34323;52.022;5.686;2022-07-06T06:12:44;18.70;99.90
48535;DHT22;34323;52.022;5.686;2022-07-06T06:15:10;18.60;99.90
48535;DHT22;34323;52.022;5.686;2022-07-06T06:17:38;18.60;99.90
48535;DHT22;34323;52.022;5.686;2022-07-06T06:20:07;18.80;99.90
48535;DHT22;34323;52.022;5.686;2022-07-06T06:22:52;19.10;99.90
48535;DHT22;34323;52.022;5.686;2022-07-06T06:25:20;19.20;99.90
48535;DHT22;34323;52.022;5.686;2022-07-06T06:27:46;19.00;99.90
48535;DHT22;34323;52.022;5.686;2022-07-06T06:30:13;19.30;99.90
48535;DHT22;34323;52.022;5.686;2022-07-06T06:32:39;19.50;99.90
48535;DHT22;34323;52.022;5.686;2022-07-06T06:35:05;19.50;99.90
48535;DHT22;34323;52.022;5.686;2022-07-06T06:37:32;19.50;99.90
48535;DHT22;34323;52.022;5.686;2022-07-06T06:39:59;19.70;99.90
48535;DHT22;34323;52.022;5.686;2022-07-06T06:42:25;19.70;99.90
48535;DHT22;34323;52.022;5.686;2022-07-06T06:44:51;19.70;99.90
48535;DHT22;34323;52.022;5.686;2022-07-06T06:47:17;19.60;99.90
48535;DHT22;34323;52.022;5.686;2022-07-06T06:49:44;19.40;99.90
48535;DHT22;34323;52.022;5.686;2022-07-06T06:52:10;19.40;99.90
48535;DHT22;34323;52.022;5.686;2022-07-06T06:54:36;19.60;99.90
48535;DHT22;34323;52.022;5.686;2022-07-06T06:57:02;19.80;99.90
48535;DHT22;34323;52.022;5.686;2022-07-06T06:59:27;19.80;99.90
48535;DHT22;34323;52.022;5.686;2022-07-06T07:01:53;19.90;99.90
48535;DHT22;34323;52.022;5.686;2022-07-06T07:04:19;19.80;99.90
48535;DHT22;34323;52.022;5.686;2022-07-06T07:06:44;19.60;99.90
48535;DHT22;34323;52.022;5.686;2022-07-06T07:09:10;19.80;99.90
48535;DHT22;34323;52.022;5.686;2022-07-06T07:11:36;19.90;99.90
48535;DHT22;34323;52.022;5.686;2022-07-06T07:14:02;19.60;99.90
48535;DHT22;34323;52.022;5.686;2022-07-06T07:16:28;19.70;99.90
48535;DHT22;34323;52.022;5.686;2022-07-06T07:18:53;19.80;99.90
48535;DHT22;34323;52.022;5.686;2022-07-06T07:21:19;20.10;99.90
48535;DHT22;34323;52.022;5.686;2022-07-06T07:23:45;20.20;99.90
48535;DHT22;34323;52.022;5.686;2022-07-06T07:26:10;20.30;99.90
48535;DHT22;34323;52.022;5.686;2022-07-06T07:28:36;20.40;99.90
48535;DHT22;34323;52.022;5.686;2022-07-06T07:31:02;20.50;99.90
48535;DHT22;34323;52.022;5.686;2022-07-06T07:33:28;20.70;99.90
48535;DHT22;34323;52.022;5.686;2022-07-06T07:35:54;20.50;99.40
48535;DHT22;34323;52.022;5.686;2022-07-06T07:38:19;20.60;99.50
48535;DHT22;34323;52.022;5.686;2022-07-06T07:40:45;20.70;99.60
48535;DHT22;34323;52.022;5.686;2022-07-06T07:43:11;20.60;98.70
48535;DHT22;34323;52.022;5.686;2022-07-06T07:45:37;20.70;99.00
48535;DHT22;34323;52.022;5.686;2022-07-06T07:48:04;20.80;98.70
48535;DHT22;34323;52.022;5.686;2022-07-06T07:50:29;20.90;98.30
48535;DHT22;34323;52.022;5.686;2022-07-06T07:52:55;21.00;98.30
48535;DHT22;34323;52.022;5.686;2022-07-06T07:55:21;20.90;98.20
48535;DHT22;34323;52.022;5.686;2022-07-06T07:57:47;21.00;98.40
48535;DHT22;34323;52.022;5.686;2022-07-06T08:00:13;21.20;98.40
48535;DHT22;34323;52.022;5.686;2022-07-06T08:02:39;21.20;98.50
48535;DHT22;34323;52.022;5.686;2022-07-06T08:05:05;21.60;98.30
48535;DHT22;34323;52.022;5.686;2022-07-06T08:07:31;21.70;97.40
48535;DHT22;34323;52.022;5.686;2022-07-06T08:09:57;21.70;97.80
48535;DHT22;34323;52.022;5.686;2022-07-06T08:12:23;21.90;97.80
48535;DHT22;34323;52.022;5.686;2022-07-06T08:14:49;22.10;97.50
48535;DHT22;34323;52.022;5.686;2022-07-06T08:17:14;22.10;96.90
48535;DHT22;34323;52.022;5.686;2022-07-06T08:19:40;22.30;96.20
48535;DHT22;34323;52.022;5.686;2022-07-06T08:22:05;22.30;96.00
48535;DHT22;34323;52.022;5.686;2022-07-06T08:24:35;22.30;96.00
48535;DHT22;34323;52.022;5.686;2022-07-06T08:27:02;22.30;96.40
48535;DHT22;34323;52.022;5.686;2022-07-06T08:29:29;22.60;96.70
48535;DHT22;34323;52.022;5.686;2022-07-06T08:31:55;22.90;95.90
48535;DHT22;34323;52.022;5.686;2022-07-06T08:34:20;23.10;96.40
48535;DHT22;34323;52.022;5.686;2022-07-06T08:36:46;23.30;96.10
48535;DHT22;34323;52.022;5.686;2022-07-06T08:39:12;23.50;95.80
48535;DHT22;34323;52.022;5.686;2022-07-06T08:41:41;23.60;95.50
48535;DHT22;34323;52.022;5.686;2022-07-06T08:44:07;23.70;95.30
48535;DHT22;34323;52.022;5.686;2022-07-06T08:46:35;23.50;95.60
48535;DHT22;34323;52.022;5.686;2022-07-06T08:49:04;23.20;95.30
48535;DHT22;34323;52.022;5.686;2022-07-06T08:51:30;23.40;95.20
48535;DHT22;34323;52.022;5.686;2022-07-06T08:53:56;23.30;95.40
48535;DHT22;34323;52.022;5.686;2022-07-06T08:56:22;23.30;95.30
48535;DHT22;34323;52.022;5.686;2022-07-06T08:58:48;23.50;95.20
48535;DHT22;34323;52.022;5.686;2022-07-06T09:01:15;23.60;94.80
48535;DHT22;34323;52.022;5.686;2022-07-06T09:03:42;23.70;95.20
48535;DHT22;34323;52.022;5.686;2022-07-06T09:06:10;23.30;94.90
48535;DHT22;34323;52.022;5.686;2022-07-06T09:08:36;23.10;94.60
48535;DHT22;34323;52.022;5.686;2022-07-06T09:11:02;23.00;95.10
48535;DHT22;34323;52.022;5.686;2022-07-06T09:13:29;22.90;94.20
48535;DHT22;34323;52.022;5.686;2022-07-06T09:15:54;22.90;94.70
48535;DHT22;34323;52.022;5.686;2022-07-06T09:18:23;22.90;94.80
48535;DHT22;34323;52.022;5.686;2022-07-06T09:20:49;23.50;94.70
48535;DHT22;34323;52.022;5.686;2022-07-06T09:23:16;23.50;95.20
48535;DHT22;34323;52.022;5.686;2022-07-06T09:25:47;23.30;94.60
48535;DHT22;34323;52.022;5.686;2022-07-06T09:28:14;23.30;94.60
48535;DHT22;34323;52.022;5.686;2022-07-06T09:30:40;23.10;94.40
48535;DHT22;34323;52.022;5.686;2022-07-06T09:33:07;23.30;93.70
48535;DHT22;34323;52.022;5.686;2022-07-06T09:35:40;23.50;94.20
48535;DHT22;34323;52.022;5.686;2022-07-06T09:38:08;23.70;93.70
48535;DHT22;34323;52.022;5.686;2022-07-06T09:40:44;24.20;95.00
48535;DHT22;34323;52.022;5.686;2022-07-06T09:43:21;24.40;92.60
48535;DHT22;34323;52.022;5.686;2022-07-06T09:45:55;24.40;94.00
48535;DHT22;34323;52.022;5.686;2022-07-06T09:48:26;24.90;93.90
48535;DHT22;34323;52.022;5.686;2022-07-06T09:51:00;25.10;94.00
48535;DHT22;34323;52.022;5.686;2022-07-06T09:53:35;25.20;93.30
48535;DHT22;34323;52.022;5.686;2022-07-06T09:56:00;25.20;93.50
48535;DHT22;34323;52.022;5.686;2022-07-06T09:58:27;25.00;94.10
48535;DHT22;34323;52.022;5.686;2022-07-06T10:00:53;24.80;94.00
48535;DHT22;34323;52.022;5.686;2022-07-06T10:03:19;24.40;94.10
48535;DHT22;34323;52.022;5.686;2022-07-06T10:05:46;24.30;94.50
48535;DHT22;34323;52.022;5.686;2022-07-06T10:08:16;24.10;94.30
48535;DHT22;34323;52.022;5.686;2022-07-06T10:10:43;24.10;94.80
48535;DHT22;34323;52.022;5.686;2022-07-06T10:13:11;24.40;94.70
48535;DHT22;34323;52.022;5.686;2022-07-06T10:15:39;24.70;94.70
48535;DHT22;34323;52.022;5.686;2022-07-06T10:18:07;25.00;94.10
48535;DHT22;34323;52.022;5.686;2022-07-06T10:20:35;25.20;94.50
48535;DHT22;34323;52.022;5.686;2022-07-06T10:23:05;25.10;93.70
48535;DHT22;34323;52.022;5.686;2022-07-06T10:25:33;24.80;93.70
48535;DHT22;34323;52.022;5.686;2022-07-06T10:27:59;24.70;94.80
48535;DHT22;34323;52.022;5.686;2022-07-06T10:30:27;24.70;94.70
48535;DHT22;34323;52.022;5.686;2022-07-06T10:32:56;25.00;94.10
48535;DHT22;34323;52.022;5.686;2022-07-06T10:35:22;24.90;94.10
48535;DHT22;34323;52.022;5.686;2022-07-06T10:38:04;25.20;94.20
48535;DHT22;34323;52.022;5.686;2022-07-06T10:40:53;25.00;93.00
48535;DHT22;34323;52.022;5.686;2022-07-06T10:43:42;24.70;93.00
48535;DHT22;34323;52.022;5.686;2022-07-06T10:46:10;24.90;93.90
48535;DHT22;34323;52.022;5.686;2022-07-06T10:48:38;25.50;94.40
48535;DHT22;34323;52.022;5.686;2022-07-06T10:51:04;25.70;93.90
48535;DHT22;34323;52.022;5.686;2022-07-06T10:53:32;25.80;93.40
48535;DHT22;34323;52.022;5.686;2022-07-06T10:56:02;26.00;92.90
48535;DHT22;34323;52.022;5.686;2022-07-06T10:58:51;25.90;94.10
48535;DHT22;34323;52.022;5.686;2022-07-06T11:01:19;25.80;93.00
48535;DHT22;34323;52.022;5.686;2022-07-06T11:04:06;26.00;94.40
48535;DHT22;34323;52.022;5.686;2022-07-06T11:06:33;25.80;93.40
48535;DHT22;34323;52.022;5.686;2022-07-06T11:09:08;25.70;93.50
48535;DHT22;34323;52.022;5.686;2022-07-06T11:19:09;26.20;93.30
48535;DHT22;34323;52.022;5.686;2022-07-06T11:24:38;26.00;92.70
48535;DHT22;34323;52.022;5.686;2022-07-06T11:27:05;26.00;93.80
48535;DHT22;34323;52.022;5.686;2022-07-06T11:29:33;26.10;93.30
48535;DHT22;34323;52.022;5.686;2022-07-06T11:32:01;26.40;93.00
48535;DHT22;34323;52.022;5.686;2022-07-06T11:34:32;26.20;92.30
48535;DHT22;34323;52.022;5.686;2022-07-06T11:37:02;26.20;93.10
48535;DHT22;34323;52.022;5.686;2022-07-06T11:39:30;26.60;93.30
48535;DHT22;34323;52.022;5.686;2022-07-06T11:41:57;26.90;92.80
48535;DHT22;34323;52.022;5.686;2022-07-06T11:44:23;27.00;93.00
48535;DHT22;34323;52.022;5.686;2022-07-06T11:46:50;26.60;92.10
48535;DHT22;34323;52.022;5.686;2022-07-06T11:49:16;26.60;92.60
48535;DHT22;34323;52.022;5.686;2022-07-06T11:51:44;26.40;92.60
48535;DHT22;34323;52.022;5.686;2022-07-06T11:54:17;26.40;92.70
48535;DHT22;34323;52.022;5.686;2022-07-06T11:56:54;26.70;93.30
48535;DHT22;34323;52.022;5.686;2022-07-06T11:59:28;26.70;92.20
48535;DHT22;34323;52.022;5.686;2022-07-06T12:02:03;27.10;92.20
48535;DHT22;34323;52.022;5.686;2022-07-06T12:04:31;27.10;91.60
48535;DHT22;34323;52.022;5.686;2022-07-06T12:07:06;26.70;93.00
48535;DHT22;34323;52.022;5.686;2022-07-06T12:09:37;27.00;93.10
48535;DHT22;34323;52.022;5.686;2022-07-06T12:12:04;27.00;92.70
48535;DHT22;34323;52.022;5.686;2022-07-06T12:14:33;26.90;93.00
48535;DHT22;34323;52.022;5.686;2022-07-06T12:17:07;26.60;92.20
48535;DHT22;34323;52.022;5.686;2022-07-06T12:19:33;26.30;92.50
48535;DHT22;34323;52.022;5.686;2022-07-06T12:21:59;26.30;93.00
48535;DHT22;34323;52.022;5.686;2022-07-06T12:24:29;26.20;92.80
48535;DHT22;34323;52.022;5.686;2022-07-06T12:27:08;26.60;92.30
48535;DHT22;34323;52.022;5.686;2022-07-06T12:29:34;26.30;93.00
48535;DHT22;34323;52.022;5.686;2022-07-06T12:32:00;26.60;91.70
48535;DHT22;34323;52.022;5.686;2022-07-06T12:34:28;26.20;93.30
48535;DHT22;34323;52.022;5.686;2022-07-06T12:36:58;26.40;93.60
48535;DHT22;34323;52.022;5.686;2022-07-06T12:39:26;26.70;93.00
48535;DHT22;34323;52.022;5.686;2022-07-06T12:42:03;27.10;93.20
48535;DHT22;34323;52.022;5.686;2022-07-06T12:44:30;27.50;91.80
48535;DHT22;34323;52.022;5.686;2022-07-06T12:47:08;27.70;92.20
48535;DHT22;34323;52.022;5.686;2022-07-06T12:49:37;27.60;92.00
48535;DHT22;34323;52.022;5.686;2022-07-06T12:54:40;27.20;93.20
48535;DHT22;34323;52.022;5.686;2022-07-06T12:57:20;27.30;92.50
48535;DHT22;34323;52.022;5.686;2022-07-06T12:59:55;27.70;92.60
48535;DHT22;34323;52.022;5.686;2022-07-06T13:02:26;27.90;92.20
48535;DHT22;34323;52.022;5.686;2022-07-06T13:05:15;27.90;92.00
48535;DHT22;34323;52.022;5.686;2022-07-06T13:07:46;27.70;92.00
48535;DHT22;34323;52.022;5.686;2022-07-06T13:10:13;28.10;92.80
48535;DHT22;34323;52.022;5.686;2022-07-06T13:12:40;28.30;91.80
48535;DHT22;34323;52.022;5.686;2022-07-06T13:15:07;27.90;91.60
48535;DHT22;34323;52.022;5.686;2022-07-06T13:17:33;27.90;92.30
48535;DHT22;34323;52.022;5.686;2022-07-06T13:19:59;28.00;93.00
48535;DHT22;34323;52.022;5.686;2022-07-06T13:22:25;28.30;91.80
48535;DHT22;34323;52.022;5.686;2022-07-06T13:24:52;28.30;92.20
48535;DHT22;34323;52.022;5.686;2022-07-06T13:27:18;28.30;91.40
48535;DHT22;34323;52.022;5.686;2022-07-06T13:29:44;27.90;91.40
48535;DHT22;34323;52.022;5.686;2022-07-06T13:32:10;27.20;92.50
48535;DHT22;34323;52.022;5.686;2022-07-06T13:34:36;27.20;91.70
48535;DHT22;34323;52.022;5.686;2022-07-06T13:37:03;27.50;92.10
48535;DHT22;34323;52.022;5.686;2022-07-06T13:39:28;27.50;91.30
48535;DHT22;34323;52.022;5.686;2022-07-06T13:41:55;27.50;92.00
48535;DHT22;34323;52.022;5.686;2022-07-06T13:44:21;27.20;91.80
48535;DHT22;34323;52.022;5.686;2022-07-06T13:46:47;27.00;91.20
48535;DHT22;34323;52.022;5.686;2022-07-06T13:49:13;27.30;92.50
48535;DHT22;34323;52.022;5.686;2022-07-06T13:51:39;27.30;91.80
48535;DHT22;34323;52.022;5.686;2022-07-06T13:54:05;27.40;91.60
48535;DHT22;34323;52.022;5.686;2022-07-06T13:56:31;27.50;91.70
48535;DHT22;34323;52.022;5.686;2022-07-06T13:58:57;27.60;91.70
48535;DHT22;34323;52.022;5.686;2022-07-06T14:01:23;28.10;92.80
48535;DHT22;34323;52.022;5.686;2022-07-06T14:03:49;28.80;91.70
48535;DHT22;34323;52.022;5.686;2022-07-06T14:06:15;29.50;92.10
48535;DHT22;34323;52.022;5.686;2022-07-06T14:08:42;29.60;91.20
48535;DHT22;34323;52.022;5.686;2022-07-06T14:11:09;29.70;90.80
48535;DHT22;34323;52.022;5.686;2022-07-06T14:13:35;29.00;90.40
48535;DHT22;34323;52.022;5.686;2022-07-06T14:16:02;29.00;90.80
48535;DHT22;34323;52.022;5.686;2022-07-06T14:18:28;29.00;91.50
48535;DHT22;34323;52.022;5.686;2022-07-06T14:20:54;28.70;90.30
48535;DHT22;34323;52.022;5.686;2022-07-06T14:23:21;28.50;90.50
48535;DHT22;34323;52.022;5.686;2022-07-06T14:25:47;28.50;91.30
48535;DHT22;34323;52.022;5.686;2022-07-06T14:28:15;28.10;90.80
48535;DHT22;34323;52.022;5.686;2022-07-06T14:30:42;28.30;91.10
48535;DHT22;34323;52.022;5.686;2022-07-06T14:33:10;28.40;90.80
48535;DHT22;34323;52.022;5.686;2022-07-06T14:35:57;28.20;90.60
48535;DHT22;34323;52.022;5.686;2022-07-06T14:38:22;28.10;91.30
48535;DHT22;34323;52.022;5.686;2022-07-06T14:40:49;28.30;91.30
48535;DHT22;34323;52.022;5.686;2022-07-06T14:43:16;28.50;91.60
48535;DHT22;34323;52.022;5.686;2022-07-06T14:45:45;28.40;91.00
48535;DHT22;34323;52.022;5.686;2022-07-06T14:48:12;28.00;90.60
48535;DHT22;34323;52.022;5.686;2022-07-06T14:50:38;27.10;90.90
48535;DHT22;34323;52.022;5.686;2022-07-06T14:53:04;26.70;91.80
48535;DHT22;34323;52.022;5.686;2022-07-06T14:55:30;26.50;91.00
48535;DHT22;34323;52.022;5.686;2022-07-06T14:57:56;26.50;91.80
48535;DHT22;34323;52.022;5.686;2022-07-06T15:00:22;26.50;91.40
48535;DHT22;34323;52.022;5.686;2022-07-06T15:02:48;26.50;91.50
48535;DHT22;34323;52.022;5.686;2022-07-06T15:05:14;26.60;92.00
48535;DHT22;34323;52.022;5.686;2022-07-06T15:07:40;26.70;91.60
48535;DHT22;34323;52.022;5.686;2022-07-06T15:10:07;27.00;91.40
48535;DHT22;34323;52.022;5.686;2022-07-06T15:12:34;26.70;91.90
48535;DHT22;34323;52.022;5.686;2022-07-06T15:14:59;26.40;92.00
48535;DHT22;34323;52.022;5.686;2022-07-06T15:17:25;26.00;93.00
48535;DHT22;34323;52.022;5.686;2022-07-06T15:19:51;26.20;92.30
48535;DHT22;34323;52.022;5.686;2022-07-06T15:22:16;26.40;92.60
48535;DHT22;34323;52.022;5.686;2022-07-06T15:24:42;26.70;92.50
48535;DHT22;34323;52.022;5.686;2022-07-06T15:27:08;26.70;92.40
48535;DHT22;34323;52.022;5.686;2022-07-06T15:29:34;26.20;92.00
48535;DHT22;34323;52.022;5.686;2022-07-06T15:32:00;26.20;92.80
48535;DHT22;34323;52.022;5.686;2022-07-06T15:34:26;26.10;92.60
48535;DHT22;34323;52.022;5.686;2022-07-06T15:36:53;26.10;92.10
48535;DHT22;34323;52.022;5.686;2022-07-06T15:39:21;26.40;92.60
48535;DHT22;34323;52.022;5.686;2022-07-06T15:41:46;26.40;92.20
48535;DHT22;34323;52.022;5.686;2022-07-06T15:44:12;26.30;92.20